createdAt,value
2023-04-22T10:55:57.254Z,1.30
2023-04-22T10:58:25.403Z,1.10
2023-04-22T11:00:59.775Z,1.40
2023-04-22T11:03:29.061Z,1.43
2023-04-22T11:06:19.037Z,1.37
2023-04-22T11:08:50.615Z,1.30
2023-04-22T11:11:19.100Z,1.30
2023-04-22T11:13:50.362Z,1.47
2023-04-22T11:16:18.427Z,1.10
2023-04-22T11:18:47.738Z,1.63
2023-04-22T11:21:14.812Z,1.40
2023-04-22T11:23:53.039Z,1.50
2023-04-22T11:26:34.174Z,1.02
2023-04-22T11:29:01.154Z,1.48
2023-04-22T11:31:27.920Z,1.77
2023-04-22T11:33:59.350Z,1.58
2023-04-22T11:36:26.460Z,1.85
2023-04-22T11:38:57.062Z,0.93
2023-04-22T11:41:24.092Z,1.30
2023-04-22T11:43:50.801Z,1.05
2023-04-22T11:46:28.781Z,1.30
2023-04-22T11:49:13.433Z,1.65
2023-04-22T11:51:56.716Z,1.55
2023-04-22T11:54:37.660Z,2.58
2023-04-22T11:57:15.538Z,1.13
2023-04-22T11:59:42.967Z,1.50
2023-04-22T12:02:10.335Z,2.40
2023-04-22T12:04:39.129Z,1.13
2023-04-22T12:07:06.214Z,1.55
2023-04-22T12:09:34.159Z,1.00
2023-04-22T12:12:04.030Z,1.30
2023-04-22T12:14:34.742Z,1.40
2023-04-22T12:17:12.100Z,2.05
2023-04-22T12:19:39.406Z,1.35
2023-04-22T12:22:06.501Z,1.30
2023-04-22T12:24:33.351Z,1.42
2023-04-22T12:27:00.085Z,2.00
2023-04-22T12:29:30.393Z,1.98
2023-04-22T12:31:57.113Z,1.20
2023-04-22T12:34:23.933Z,1.48
2023-04-22T12:36:50.871Z,2.58
2023-04-22T12:39:18.951Z,1.38
2023-04-22T12:41:48.048Z,1.67
2023-04-22T12:44:14.748Z,1.40
2023-04-22T12:46:41.490Z,2.20
2023-04-22T12:49:09.730Z,1.30
2023-04-22T12:51:36.538Z,1.02
2023-04-22T12:54:03.601Z,1.33
2023-04-22T12:56:30.391Z,1.70
2023-04-22T12:58:57.386Z,1.60
2023-04-22T13:01:24.139Z,1.60
2023-04-22T13:03:53.269Z,1.67
2023-04-22T13:06:20.285Z,1.27
2023-04-22T13:08:47.008Z,1.40
2023-04-22T13:11:13.919Z,1.90
2023-04-22T13:13:40.773Z,2.22
2023-04-22T13:16:07.524Z,2.10
2023-04-22T13:18:34.294Z,1.20
2023-04-22T13:21:01.090Z,2.03
2023-04-22T13:23:27.874Z,1.20
2023-04-22T13:25:54.581Z,1.45
2023-04-22T13:28:21.309Z,1.60
2023-04-22T13:30:48.162Z,1.30
2023-04-22T13:33:14.947Z,1.45
2023-04-22T13:35:41.685Z,2.08
2023-04-22T13:38:08.652Z,1.73
2023-04-22T13:40:35.773Z,1.60
2023-04-22T13:43:02.609Z,2.08
2023-04-22T13:45:29.408Z,1.45
2023-04-22T13:47:56.244Z,1.60
2023-04-22T13:50:23.922Z,2.47
2023-04-22T13:52:50.684Z,2.35
2023-04-22T13:55:17.664Z,1.70
2023-04-22T13:57:45.421Z,1.45
2023-04-22T14:00:12.704Z,2.83
2023-04-22T14:02:39.679Z,1.92
2023-04-22T14:05:07.467Z,2.63
2023-04-22T14:07:34.220Z,1.75
2023-04-22T14:10:01.114Z,1.65
2023-04-22T14:12:28.262Z,1.92
2023-04-22T14:14:54.997Z,1.63
2023-04-22T14:17:22.987Z,1.70
2023-04-22T14:19:49.884Z,2.20
2023-04-22T14:22:16.618Z,2.08
2023-04-22T14:24:43.330Z,2.45
2023-04-22T14:27:11.920Z,2.30
2023-04-22T14:29:39.514Z,2.67
2023-04-22T14:32:06.483Z,2.75
2023-04-22T14:34:33.256Z,2.72
2023-04-22T14:37:00.102Z,1.52
2023-04-22T14:39:26.842Z,1.40
2023-04-22T14:41:53.662Z,1.67
2023-04-22T14:44:20.358Z,2.53
2023-04-22T14:46:47.132Z,1.90
2023-04-22T14:49:13.862Z,1.95
2023-04-22T14:51:40.782Z,2.22
2023-04-22T14:54:07.525Z,2.17
2023-04-22T14:56:34.437Z,2.85
2023-04-22T14:59:01.683Z,2.00
2023-04-22T15:01:28.446Z,2.67
2023-04-22T15:03:55.518Z,1.98
2023-04-22T15:06:23.217Z,1.58
2023-04-22T15:08:51.778Z,2.28
2023-04-22T15:11:18.532Z,2.25
2023-04-22T15:13:45.532Z,1.88
2023-04-22T15:16:13.466Z,2.33
2023-04-22T15:18:40.365Z,2.03
2023-04-22T15:21:10.195Z,1.95
2023-04-22T15:23:36.974Z,2.00
2023-04-22T15:26:03.914Z,1.63
2023-04-22T15:28:30.670Z,2.63
2023-04-22T15:30:57.374Z,1.70
2023-04-22T15:33:24.214Z,2.60
2023-04-22T15:35:51.059Z,3.03
2023-04-22T15:38:17.936Z,1.70
2023-04-22T15:40:44.804Z,1.50
2023-04-22T15:43:11.592Z,3.40
2023-04-22T15:45:38.568Z,2.28
2023-04-22T15:48:06.008Z,2.88
2023-04-22T15:50:32.901Z,1.80
2023-04-22T15:53:03.252Z,1.90
2023-04-22T15:55:29.977Z,3.08
2023-04-22T15:57:56.943Z,2.50
2023-04-22T16:00:23.728Z,3.00
2023-04-22T16:02:55.356Z,2.47
2023-04-22T16:05:24.619Z,1.88
2023-04-22T16:07:53.023Z,2.72
2023-04-22T16:10:20.343Z,1.75
2023-04-22T16:12:47.088Z,3.63
2023-04-22T16:15:13.964Z,2.28
2023-04-22T16:17:41.138Z,2.20
2023-04-22T16:20:09.588Z,1.55
2023-04-22T16:22:37.110Z,1.70
2023-04-22T16:25:04.563Z,1.73
2023-04-22T16:27:31.873Z,1.60
2023-04-22T16:29:58.821Z,5.10
2023-04-22T16:32:25.742Z,5.87
2023-04-22T16:34:52.565Z,6.30
2023-04-22T16:37:19.408Z,6.28
2023-04-22T16:39:47.677Z,3.20
2023-04-22T16:42:14.513Z,3.50
2023-04-22T16:44:41.377Z,3.03
2023-04-22T16:47:08.400Z,2.75
2023-04-22T16:49:35.350Z,3.37
2023-04-22T16:52:02.208Z,3.93
2023-04-22T16:54:29.621Z,5.10
2023-04-22T16:56:57.588Z,4.97
2023-04-22T16:59:46.489Z,4.10
2023-04-22T17:02:13.433Z,4.37
2023-04-22T17:04:40.372Z,3.10
2023-04-22T17:07:07.143Z,3.63
2023-04-22T17:10:40.088Z,3.00
2023-04-22T17:13:32.191Z,2.37
2023-04-22T17:15:58.992Z,2.27
2023-04-22T17:18:26.105Z,2.23
2023-04-22T17:20:59.104Z,3.23
2023-04-22T17:23:27.011Z,2.20
2023-04-22T17:25:53.910Z,3.30
2023-04-22T17:28:20.744Z,2.50
2023-04-22T17:30:47.573Z,2.30
2023-04-22T17:33:14.446Z,2.43
2023-04-22T17:35:41.456Z,2.80
2023-04-22T17:38:08.432Z,3.10
2023-04-22T17:41:08.750Z,3.57
2023-04-22T17:43:35.736Z,3.07
2023-04-22T17:56:17.889Z,4.20
